Terminal Aerodrome Forecast
Issued by NWS

Home | Current Version | Previous Version | Text Only | Print | Product List | Glossary On
Versions: 1 2 3 4 5 6 7 8 9 10 11 12 13 14 15 16 17 18 19 20 21 22 23 24 25 26 27 28 29 30 31 32
000
FTUS41 KBOX 300831 AAA
TAFHYA
TAF AMD
KHYA 300831Z 3009/3106 24008KT 4SM BR SCT003
     FM301300 23012KT P6SM SCT200
     FM301700 22014G22KT P6SM FEW050 SCT250
     FM302000 22015G26KT P6SM SCT050 BKN100
     FM310000 21014G27KT P6SM VCSH BKN020
     FM310400 22012G21KT 6SM BR BKN020=

USA.gov is the U.S. government's official web portal to all federal, state and local government web resources and services.